sensor_id;sensor_type;location;lat;lon;timestamp;pressure;altitude;pressure_sealevel;temperature;humidity
65666;BME280;52365;47.464;18.976;2022-09-21T00:00:28;100067.69;;;12.02;65.25
65666;BME280;52365;47.464;18.976;2022-09-21T00:01:45;100060.91;;;12.07;64.98
65666;BME280;52365;47.464;18.976;2022-09-21T00:02:21;100059.12;;;12.04;65.10
65666;BME280;52365;47.464;18.976;2022-09-21T00:02:57;100066.19;;;12.01;65.25
65666;BME280;52365;47.464;18.976;2022-09-21T00:03:33;100072.06;;;12.00;65.32
65666;BME280;52365;47.464;18.976;2022-09-21T00:04:09;100065.75;;;12.03;65.26
65666;BME280;52365;47.464;18.976;2022-09-21T00:04:45;100061.69;;;12.07;65.09
65666;BME280;52365;47.464;18.976;2022-09-21T00:05:22;100067.53;;;12.06;64.94
65666;BME280;52365;47.464;18.976;2022-09-21T00:06:03;100069.94;;;12.04;65.02
65666;BME280;52365;47.464;18.976;2022-09-21T00:06:39;100067.09;;;12.07;64.98
65666;BME280;52365;47.464;18.976;2022-09-21T00:07:15;100060.03;;;12.01;65.09
65666;BME280;52365;47.464;18.976;2022-09-21T00:07:51;100063.22;;;11.99;65.26
65666;BME280;52365;47.464;18.976;2022-09-21T00:08:27;100068.63;;;11.99;65.26
65666;BME280;52365;47.464;18.976;2022-09-21T00:09:04;100063.81;;;12.03;65.27
65666;BME280;52365;47.464;18.976;2022-09-21T00:09:40;100063.22;;;11.99;65.30
65666;BME280;52365;47.464;18.976;2022-09-21T00:10:17;100059.19;;;11.95;65.33
65666;BME280;52365;47.464;18.976;2022-09-21T00:10:54;100060.34;;;11.94;65.39
65666;BME280;52365;47.464;18.976;2022-09-21T00:11:32;100065.31;;;11.95;65.41
65666;BME280;52365;47.464;18.976;2022-09-21T00:12:08;100057.22;;;11.95;65.40
65666;BME280;52365;47.464;18.976;2022-09-21T00:12:45;100062.62;;;11.95;65.40
65666;BME280;52365;47.464;18.976;2022-09-21T00:13:22;100057.22;;;11.95;65.49
65666;BME280;52365;47.464;18.976;2022-09-21T00:14:03;100063.66;;;11.98;65.41
65666;BME280;52365;47.464;18.976;2022-09-21T00:14:42;100057.34;;;12.01;65.17
65666;BME280;52365;47.464;18.976;2022-09-21T00:15:18;100059.12;;;12.04;65.08
65666;BME280;52365;47.464;18.976;2022-09-21T00:15:54;100059.12;;;12.04;65.20
65666;BME280;52365;47.464;18.976;2022-09-21T00:16:30;100061.13;;;11.94;65.55
65666;BME280;52365;47.464;18.976;2022-09-21T00:17:06;100056.47;;;11.95;65.65
65666;BME280;52365;47.464;18.976;2022-09-21T00:17:45;100067.28;;;11.95;65.63
65666;BME280;52365;47.464;18.976;2022-09-21T00:18:23;100061.88;;;11.95;65.71
65666;BME280;52365;47.464;18.976;2022-09-21T00:18:59;100057.81;;;11.99;65.62
65666;BME280;52365;47.464;18.976;2022-09-21T00:19:35;100057.81;;;11.99;65.53
65666;BME280;52365;47.464;18.976;2022-09-21T00:20:13;100062.28;;;12.02;65.42
65666;BME280;52365;47.464;18.976;2022-09-21T00:20:50;100053.00;;;12.03;65.42
65666;BME280;52365;47.464;18.976;2022-09-21T00:21:27;100063.81;;;12.03;65.46
65666;BME280;52365;47.464;18.976;2022-09-21T00:22:03;100062.12;;;12.06;65.54
65666;BME280;52365;47.464;18.976;2022-09-21T00:22:39;100055.06;;;12.08;65.47
65666;BME280;52365;47.464;18.976;2022-09-21T00:23:16;100061.37;;;12.05;65.51
65666;BME280;52365;47.464;18.976;2022-09-21T00:23:53;100069.03;;;12.07;65.50
65666;BME280;52365;47.464;18.976;2022-09-21T00:24:30;100064.09;;;12.05;65.47
65666;BME280;52365;47.464;18.976;2022-09-21T00:25:07;100062.88;;;12.06;65.55
65666;BME280;52365;47.464;18.976;2022-09-21T00:25:43;100063.06;;;12.03;65.98
65666;BME280;52365;47.464;18.976;2022-09-21T00:26:22;100069.03;;;12.07;65.85
65666;BME280;52365;47.464;18.976;2022-09-21T00:26:58;100062.72;;;12.10;65.64
65666;BME280;52365;47.464;18.976;2022-09-21T00:27:35;100064.19;;;12.11;65.48
65666;BME280;52365;47.464;18.976;2022-09-21T00:28:11;100063.31;;;12.14;65.31
65666;BME280;52365;47.464;18.976;2022-09-21T00:29:01;100061.81;;;12.13;65.25
65666;BME280;52365;47.464;18.976;2022-09-21T00:29:38;100064.78;;;12.15;65.28
65666;BME280;52365;47.464;18.976;2022-09-21T00:30:14;100060.91;;;12.16;65.34
65666;BME280;52365;47.464;18.976;2022-09-21T00:30:50;100063.31;;;12.14;65.33
65666;BME280;52365;47.464;18.976;2022-09-21T00:31:28;100067.22;;;12.13;65.38
65666;BME280;52365;47.464;18.976;2022-09-21T00:32:04;100059.38;;;12.15;65.32
65666;BME280;52365;47.464;18.976;2022-09-21T00:32:41;100064.03;;;12.15;65.32
65666;BME280;52365;47.464;18.976;2022-09-21T00:33:17;100065.72;;;12.12;65.36
65666;BME280;52365;47.464;18.976;2022-09-21T00:33:53;100057.31;;;12.10;65.39
65666;BME280;52365;47.464;18.976;2022-09-21T00:34:29;100060.31;;;12.12;65.47
65666;BME280;52365;47.464;18.976;2022-09-21T00:35:07;100065.53;;;12.16;65.43
65666;BME280;52365;47.464;18.976;2022-09-21T00:35:44;100075.00;;;12.11;65.38
65666;BME280;52365;47.464;18.976;2022-09-21T00:36:23;100062.72;;;12.10;65.43
65666;BME280;52365;47.464;18.976;2022-09-21T00:36:59;100065.41;;;12.10;65.42
65666;BME280;52365;47.464;18.976;2022-09-21T00:37:35;100064.81;;;12.06;65.57
65666;BME280;52365;47.464;18.976;2022-09-21T00:38:11;100065.88;;;12.08;65.62
65666;BME280;52365;47.464;18.976;2022-09-21T00:38:55;100068.59;;;12.08;65.49
65666;BME280;52365;47.464;18.976;2022-09-21T00:39:32;100067.53;;;12.06;65.48
65666;BME280;52365;47.464;18.976;2022-09-21T00:40:09;100071.44;;;12.05;65.51
65666;BME280;52365;47.464;18.976;2022-09-21T00:40:45;100065.56;;;12.06;65.48
65666;BME280;52365;47.464;18.976;2022-09-21T00:41:21;100067.53;;;12.06;65.45
65666;BME280;52365;47.464;18.976;2022-09-21T00:41:57;100065.44;;;12.01;65.52
65666;BME280;52365;47.464;18.976;2022-09-21T00:42:34;100068.47;;;12.03;65.54
65666;BME280;52365;47.464;18.976;2022-09-21T00:43:14;100067.69;;;12.02;65.53
65666;BME280;52365;47.464;18.976;2022-09-21T00:44:22;100070.84;;;12.01;65.47
65666;BME280;52365;47.464;18.976;2022-09-21T00:45:00;100065.44;;;12.01;65.41
65666;BME280;52365;47.464;18.976;2022-09-21T00:45:36;100061.69;;;11.98;65.51
65666;BME280;52365;47.464;18.976;2022-09-21T00:46:25;100071.75;;;11.98;65.45
65666;BME280;52365;47.464;18.976;2022-09-21T00:47:25;100066.22;;;11.92;65.36
65666;BME280;52365;47.464;18.976;2022-09-21T00:48:02;100071.78;;;11.89;65.40
65666;BME280;52365;47.464;18.976;2022-09-21T00:48:39;100066.69;;;11.91;65.25
65666;BME280;52365;47.464;18.976;2022-09-21T00:49:16;100075.41;;;11.86;65.41
65666;BME280;52365;47.464;18.976;2022-09-21T00:49:54;100073.44;;;11.86;65.55
65666;BME280;52365;47.464;18.976;2022-09-21T00:50:32;100061.13;;;11.85;65.71
65666;BME280;52365;47.464;18.976;2022-09-21T00:51:10;100066.84;;;11.87;65.79
65666;BME280;52365;47.464;18.976;2022-09-21T00:51:46;100073.00;;;11.88;65.77
65666;BME280;52365;47.464;18.976;2022-09-21T00:52:25;100070.75;;;11.86;65.78
65666;BME280;52365;47.464;18.976;2022-09-21T00:53:04;100073.16;;;11.84;65.72
65666;BME280;52365;47.464;18.976;2022-09-21T00:53:40;100073.59;;;11.82;65.68
65666;BME280;52365;47.464;18.976;2022-09-21T00:54:21;100075.41;;;11.86;65.65
65666;BME280;52365;47.464;18.976;2022-09-21T00:55:21;100079.28;;;11.84;65.59
65666;BME280;52365;47.464;18.976;2022-09-21T00:55:58;100076.91;;;11.77;65.86
65666;BME280;52365;47.464;18.976;2022-09-21T00:56:35;100074.19;;;11.77;65.87
65666;BME280;52365;47.464;18.976;2022-09-21T00:57:13;100079.75;;;11.74;65.91
65666;BME280;52365;47.464;18.976;2022-09-21T00:57:53;100075.84;;;11.75;65.96
65666;BME280;52365;47.464;18.976;2022-09-21T00:58:37;100078.06;;;11.76;65.83
65666;BME280;52365;47.464;18.976;2022-09-21T00:59:17;100079.75;;;11.74;65.77
65666;BME280;52365;47.464;18.976;2022-09-21T00:59:55;100077.94;;;11.71;65.80
65666;BME280;52365;47.464;18.976;2022-09-21T01:00:33;100079.00;;;11.73;65.70
65666;BME280;52365;47.464;18.976;2022-09-21T01:01:09;100077.19;;;11.70;65.64
65666;BME280;52365;47.464;18.976;2022-09-21T01:01:46;100074.50;;;11.70;65.61
65666;BME280;52365;47.464;18.976;2022-09-21T01:02:23;100079.91;;;11.70;65.62
65666;BME280;52365;47.464;18.976;2022-09-21T01:02:59;100082.59;;;11.70;65.71
65666;BME280;52365;47.464;18.976;2022-09-21T01:03:36;100073.75;;;11.70;65.74
65666;BME280;52365;47.464;18.976;2022-09-21T01:04:13;100075.84;;;11.66;65.81
65666;BME280;52365;47.464;18.976;2022-09-21T01:04:52;100081.72;;;11.64;65.79
65666;BME280;52365;47.464;18.976;2022-09-21T01:05:28;100076.31;;;11.64;65.86
65666;BME280;52365;47.464;18.976;2022-09-21T01:06:05;100085.31;;;11.61;65.91
65666;BME280;52365;47.464;18.976;2022-09-21T01:06:41;100080.19;;;11.63;65.89
65666;BME280;52365;47.464;18.976;2022-09-21T01:07:21;100081.72;;;11.64;65.81
65666;BME280;52365;47.464;18.976;2022-09-21T01:08:01;100084.41;;;11.64;65.87
65666;BME280;52365;47.464;18.976;2022-09-21T01:08:40;100080.50;;;11.65;65.92
65666;BME280;52365;47.464;18.976;2022-09-21T01:09:17;100092.81;;;11.66;65.92
65666;BME280;52365;47.464;18.976;2022-09-21T01:09:56;100083.97;;;11.66;65.88
65666;BME280;52365;47.464;18.976;2022-09-21T01:10:52;100085.91;;;11.65;65.94
65666;BME280;52365;47.464;18.976;2022-09-21T01:12:45;100082.47;;;11.55;66.08
65666;BME280;52365;47.464;18.976;2022-09-21T01:13:32;100083.50;;;11.58;66.08
65666;BME280;52365;47.464;18.976;2022-09-21T01:14:35;100087.13;;;11.55;65.85
65666;BME280;52365;47.464;18.976;2022-09-21T01:16:21;100081.13;;;11.51;66.06
65666;BME280;52365;47.464;18.976;2022-09-21T01:17:13;100085.19;;;11.46;66.24
65666;BME280;52365;47.464;18.976;2022-09-21T01:18:11;100082.62;;;11.52;66.21
65666;BME280;52365;47.464;18.976;2022-09-21T01:19:01;100086.06;;;11.52;66.12
65666;BME280;52365;47.464;18.976;2022-09-21T01:20:04;100082.91;;;11.54;65.90
65666;BME280;52365;47.464;18.976;2022-09-21T01:21:33;100085.34;;;11.43;66.48
65666;BME280;52365;47.464;18.976;2022-09-21T01:27:04;100085.03;;;11.41;66.62
65666;BME280;52365;47.464;18.976;2022-09-21T01:27:53;100085.63;;;11.45;66.54
65666;BME280;52365;47.464;18.976;2022-09-21T01:29:29;100087.44;;;11.48;66.34
65666;BME280;52365;47.464;18.976;2022-09-21T01:29:58;100092.53;;;11.46;66.49
65666;BME280;52365;47.464;18.976;2022-09-21T01:30:38;100081.44;;;11.44;66.79
65666;BME280;52365;47.464;18.976;2022-09-21T01:31:22;100094.03;;;11.47;66.57
65666;BME280;52365;47.464;18.976;2022-09-21T01:32:13;100093.72;;;11.45;66.52
65666;BME280;52365;47.464;18.976;2022-09-21T01:32:55;100094.31;;;11.40;66.40
65666;BME280;52365;47.464;18.976;2022-09-21T01:33:48;100098.09;;;11.42;66.21
65666;BME280;52365;47.464;18.976;2022-09-21T01:34:47;100091.47;;;11.34;66.33
65666;BME280;52365;47.464;18.976;2022-09-21T01:35:35;100088.31;;;11.35;66.62
65666;BME280;52365;47.464;18.976;2022-09-21T01:36:15;100091.47;;;11.34;66.73
65666;BME280;52365;47.464;18.976;2022-09-21T01:36:55;100090.59;;;11.37;66.70
65666;BME280;52365;47.464;18.976;2022-09-21T01:37:59;100079.03;;;11.37;66.62
65666;BME280;52365;47.464;18.976;2022-09-21T01:38:37;100095.81;;;11.41;66.64
65666;BME280;52365;47.464;18.976;2022-09-21T01:39:16;100088.94;;;11.40;66.50
65666;BME280;52365;47.464;18.976;2022-09-21T01:39:58;100088.63;;;11.38;66.61
65666;BME280;52365;47.464;18.976;2022-09-21T01:40:38;100092.22;;;11.34;66.70
65666;BME280;52365;47.464;18.976;2022-09-21T01:41:20;100093.72;;;11.35;66.78
65666;BME280;52365;47.464;18.976;2022-09-21T01:41:58;100086.09;;;11.34;66.99
65666;BME280;52365;47.464;18.976;2022-09-21T01:42:39;100085.34;;;11.33;67.12
65666;BME280;52365;47.464;18.976;2022-09-21T01:43:22;100090.75;;;11.33;67.14
65666;BME280;52365;47.464;18.976;2022-09-21T01:44:07;100090.59;;;11.37;67.07
65666;BME280;52365;47.464;18.976;2022-09-21T01:44:46;100091.47;;;11.43;66.79
65666;BME280;52365;47.464;18.976;2022-09-21T01:45:29;100095.06;;;11.40;66.67
65666;BME280;52365;47.464;18.976;2022-09-21T01:46:11;100098.22;;;11.39;66.78
65666;BME280;52365;47.464;18.976;2022-09-21T01:46:49;100092.81;;;11.39;66.89
65666;BME280;52365;47.464;18.976;2022-09-21T01:47:26;100090.59;;;11.37;67.05
65666;BME280;52365;47.464;18.976;2022-09-21T01:48:06;100088.63;;;11.38;67.09
65666;BME280;52365;47.464;18.976;2022-09-21T01:48:49;100086.38;;;11.36;67.19
65666;BME280;52365;47.464;18.976;2022-09-21T01:49:35;100094.03;;;11.38;67.16
65666;BME280;52365;47.464;18.976;2022-09-21T01:50:12;100086.69;;;11.38;67.17
65666;BME280;52365;47.464;18.976;2022-09-21T01:50:52;100099.13;;;11.35;67.14
65666;BME280;52365;47.464;18.976;2022-09-21T01:51:31;100099.72;;;11.40;67.16
65666;BME280;52365;47.464;18.976;2022-09-21T01:52:27;100087.28;;;11.42;66.99
65666;BME280;52365;47.464;18.976;2022-09-21T01:53:14;100090.59;;;11.46;66.79
65666;BME280;52365;47.464;18.976;2022-09-21T01:53:57;100088.03;;;11.43;66.77
65666;BME280;52365;47.464;18.976;2022-09-21T01:54:51;100095.53;;;11.39;66.87
65666;BME280;52365;47.464;18.976;2022-09-21T01:55:39;100094.31;;;11.40;66.92
65666;BME280;52365;47.464;18.976;2022-09-21T01:56:23;100092.81;;;11.39;67.01
65666;BME280;52365;47.464;18.976;2022-09-21T01:57:10;100100.19;;;11.38;66.98
65666;BME280;52365;47.464;18.976;2022-09-21T01:58:04;100093.12;;;11.41;66.90
65666;BME280;52365;47.464;18.976;2022-09-21T01:59:52;100090.59;;;11.46;66.75
65666;BME280;52365;47.464;18.976;2022-09-21T02:00:30;100097.63;;;11.44;66.86
65666;BME280;52365;47.464;18.976;2022-09-21T02:01:11;100089.84;;;11.46;66.88
65666;BME280;52365;47.464;18.976;2022-09-21T02:01:55;100091.75;;;11.45;66.95
65666;BME280;52365;47.464;18.976;2022-09-21T02:03:28;100092.38;;;11.49;66.91
65666;BME280;52365;47.464;18.976;2022-09-21T02:04:09;100089.97;;;11.51;66.83
65666;BME280;52365;47.464;18.976;2022-09-21T02:04:45;100094.63;;;11.51;66.89
65666;BME280;52365;47.464;18.976;2022-09-21T02:05:22;100099.28;;;11.50;66.85
65666;BME280;52365;47.464;18.976;2022-09-21T02:06:00;100094.78;;;11.47;66.87
65666;BME280;52365;47.464;18.976;2022-09-21T02:06:40;100087.44;;;11.48;66.87
65666;BME280;52365;47.464;18.976;2022-09-21T02:07:17;100094.78;;;11.47;66.89
65666;BME280;52365;47.464;18.976;2022-09-21T02:07:53;100096.12;;;11.52;66.74
65666;BME280;52365;47.464;18.976;2022-09-21T02:08:31;100095.06;;;11.49;66.73
65666;BME280;52365;47.464;18.976;2022-09-21T02:09:08;100093.41;;;11.52;66.80
65666;BME280;52365;47.464;18.976;2022-09-21T02:09:46;100098.06;;;11.51;66.88
65666;BME280;52365;47.464;18.976;2022-09-21T02:10:33;100099.09;;;11.54;66.91
65666;BME280;52365;47.464;18.976;2022-09-21T02:11:09;100095.50;;;11.57;66.92
65666;BME280;52365;47.464;18.976;2022-09-21T02:11:48;100102.13;;;11.56;66.98
65666;BME280;52365;47.464;18.976;2022-09-21T02:12:24;100100.91;;;11.57;67.03
65666;BME280;52365;47.464;18.976;2022-09-21T02:13:03;100102.88;;;11.56;67.01
65666;BME280;52365;47.464;18.976;2022-09-21T02:13:44;100099.69;;;11.58;67.04
65666;BME280;52365;47.464;18.976;2022-09-21T02:14:22;100094.78;;;11.56;67.12
65666;BME280;52365;47.464;18.976;2022-09-21T02:15:02;100103.59;;;11.57;67.19
65666;BME280;52365;47.464;18.976;2022-09-21T02:16:35;100097.31;;;11.60;67.35
65666;BME280;52365;47.464;18.976;2022-09-21T02:17:26;100099.69;;;11.58;67.40
65666;BME280;52365;47.464;18.976;2022-09-21T02:18:10;100106.91;;;11.61;67.34
65666;BME280;52365;47.464;18.976;2022-09-21T02:20:08;100108.41;;;11.62;67.28
65666;BME280;52365;47.464;18.976;2022-09-21T02:20:56;100100.31;;;11.62;67.28
65666;BME280;52365;47.464;18.976;2022-09-21T02:22:17;100100.59;;;11.73;67.06
65666;BME280;52365;47.464;18.976;2022-09-21T02:23:46;100105.37;;;11.78;67.07
65666;BME280;52365;47.464;18.976;2022-09-21T02:24:37;100106.00;;;11.82;67.00
65666;BME280;52365;47.464;18.976;2022-09-21T02:25:32;100102.97;;;11.80;67.10
65666;BME280;52365;47.464;18.976;2022-09-21T02:26:17;100114.41;;;11.84;67.15
65666;BME280;52365;47.464;18.976;2022-09-21T02:27:03;100114.53;;;11.81;67.30
65666;BME280;52365;47.464;18.976;2022-09-21T02:28:05;100108.97;;;11.75;67.58
65666;BME280;52365;47.464;18.976;2022-09-21T02:28:49;100105.66;;;11.80;67.64
65666;BME280;52365;47.464;18.976;2022-09-21T02:29:44;100110.19;;;11.83;67.61
65666;BME280;52365;47.464;18.976;2022-09-21T02:30:25;100112.59;;;11.81;67.70
65666;BME280;52365;47.464;18.976;2022-09-21T02:31:53;100106.00;;;11.82;67.77
65666;BME280;52365;47.464;18.976;2022-09-21T02:33:32;100105.41;;;11.88;67.46
65666;BME280;52365;47.464;18.976;2022-09-21T02:34:33;100113.03;;;11.89;67.40
65666;BME280;52365;47.464;18.976;2022-09-21T02:35:28;100108.84;;;11.88;67.32
65666;BME280;52365;47.464;18.976;2022-09-21T02:36:14;100117.25;;;11.90;67.16
65666;BME280;52365;47.464;18.976;2022-09-21T02:36:54;100109.91;;;11.91;66.94
65666;BME280;52365;47.464;18.976;2022-09-21T02:37:42;100111.37;;;11.92;66.92
65666;BME280;52365;47.464;18.976;2022-09-21T02:38:48;100105.22;;;12.00;66.67
65666;BME280;52365;47.464;18.976;2022-09-21T02:39:34;100110.19;;;11.93;66.71
65666;BME280;52365;47.464;18.976;2022-09-21T02:40:55;100103.41;;;11.97;66.80
65666;BME280;52365;47.464;18.976;2022-09-21T02:41:45;100104.16;;;11.98;66.69
65666;BME280;52365;47.464;18.976;2022-09-21T02:42:30;100098.75;;;11.98;66.76
65666;BME280;52365;47.464;18.976;2022-09-21T02:43:16;100106.59;;;11.96;66.71
65666;BME280;52365;47.464;18.976;2022-09-21T02:44:02;100105.37;;;11.97;66.62
65666;BME280;52365;47.464;18.976;2022-09-21T02:44:46;100104.91;;;11.98;66.57
65666;BME280;52365;47.464;18.976;2022-09-21T02:45:30;100108.22;;;11.93;66.73
65666;BME280;52365;47.464;18.976;2022-09-21T02:46:13;100115.31;;;11.91;66.84
65666;BME280;52365;47.464;18.976;2022-09-21T02:47:15;100111.37;;;11.92;66.85
65666;BME280;52365;47.464;18.976;2022-09-21T02:48:01;100112.25;;;11.98;66.62
65666;BME280;52365;47.464;18.976;2022-09-21T02:48:47;100103.88;;;11.96;66.75
65666;BME280;52365;47.464;18.976;2022-09-21T02:49:30;100104.63;;;11.96;66.76
65666;BME280;52365;47.464;18.976;2022-09-21T02:50:13;100108.53;;;11.95;66.80
65666;BME280;52365;47.464;18.976;2022-09-21T02:50:53;100108.97;;;11.94;66.72
65666;BME280;52365;47.464;18.976;2022-09-21T02:51:35;100105.09;;;11.95;66.52
65666;BME280;52365;47.464;18.976;2022-09-21T02:52:15;100107.03;;;11.94;66.29
65666;BME280;52365;47.464;18.976;2022-09-21T02:52:53;100111.66;;;11.94;66.20
65666;BME280;52365;47.464;18.976;2022-09-21T02:53:34;100108.41;;;11.90;66.39
65666;BME280;52365;47.464;18.976;2022-09-21T02:54:15;100116.03;;;11.91;66.38
65666;BME280;52365;47.464;18.976;2022-09-21T02:54:52;100111.97;;;11.96;66.44
65666;BME280;52365;47.464;18.976;2022-09-21T02:55:31;100105.37;;;11.97;66.25
65666;BME280;52365;47.464;18.976;2022-09-21T02:56:09;100115.72;;;11.98;66.16
65666;BME280;52365;47.464;18.976;2022-09-21T02:56:47;100110.78;;;11.97;66.14
65666;BME280;52365;47.464;18.976;2022-09-21T02:57:24;100115.28;;;12.00;66.08
65666;BME280;52365;47.464;18.976;2022-09-21T02:58:04;100118.41;;;11.98;66.10
65666;BME280;52365;47.464;18.976;2022-09-21T02:58:46;100114.97;;;11.98;66.08
65666;BME280;52365;47.464;18.976;2022-09-21T02:59:25;100116.62;;;11.95;66.15
65666;BME280;52365;47.464;18.976;2022-09-21T03:00:04;100118.87;;;11.97;66.07
65666;BME280;52365;47.464;18.976;2022-09-21T03:00:40;100113.19;;;11.95;66.02
65666;BME280;52365;47.464;18.976;2022-09-21T03:01:17;100110.03;;;11.96;65.96
65666;BME280;52365;47.464;18.976;2022-09-21T03:01:54;100110.63;;;12.00;65.83
65666;BME280;52365;47.464;18.976;2022-09-21T03:02:38;100114.38;;;12.03;65.71
65666;BME280;52365;47.464;18.976;2022-09-21T03:03:16;100109.72;;;12.03;65.77
65666;BME280;52365;47.464;18.976;2022-09-21T03:03:52;100120.53;;;12.03;65.91
65666;BME280;52365;47.464;18.976;2022-09-21T03:04:29;100119.78;;;12.03;65.96
65666;BME280;52365;47.464;18.976;2022-09-21T03:05:07;100118.09;;;12.05;65.96
65666;BME280;52365;47.464;18.976;2022-09-21T03:05:49;100113.91;;;12.04;66.00
65666;BME280;52365;47.464;18.976;2022-09-21T03:06:25;100121.28;;;12.04;66.11
65666;BME280;52365;47.464;18.976;2022-09-21T03:07:01;100123.03;;;12.07;66.08
65666;BME280;52365;47.464;18.976;2022-09-21T03:07:37;100119.31;;;12.04;66.19
65666;BME280;52365;47.464;18.976;2022-09-21T03:08:15;100127.41;;;12.04;66.24
65666;BME280;52365;47.464;18.976;2022-09-21T03:08:52;100116.16;;;12.06;66.28
65666;BME280;52365;47.464;18.976;2022-09-21T03:09:28;100126.97;;;12.06;66.38
65666;BME280;52365;47.464;18.976;2022-09-21T03:10:05;100118.41;;;12.07;66.35
65666;BME280;52365;47.464;18.976;2022-09-21T03:10:43;100111.34;;;12.10;66.39
65666;BME280;52365;47.464;18.976;2022-09-21T03:11:19;100125.31;;;12.08;66.31
65666;BME280;52365;47.464;18.976;2022-09-21T03:11:55;100120.66;;;12.09;66.28
65666;BME280;52365;47.464;18.976;2022-09-21T03:12:31;100116.91;;;12.06;66.21
65666;BME280;52365;47.464;18.976;2022-09-21T03:13:08;100121.13;;;12.07;66.26
65666;BME280;52365;47.464;18.976;2022-09-21T03:13:44;100125.19;;;12.03;66.42
65666;BME280;52365;47.464;18.976;2022-09-21T03:14:20;100118.25;;;12.02;66.56
65666;BME280;52365;47.464;18.976;2022-09-21T03:14:57;100127.41;;;12.04;66.60
65666;BME280;52365;47.464;18.976;2022-09-21T03:15:36;100117.38;;;12.05;66.46
65666;BME280;52365;47.464;18.976;2022-09-21T03:16:12;100126.22;;;12.05;66.41
65666;BME280;52365;47.464;18.976;2022-09-21T03:16:48;100124.84;;;12.10;66.26
65666;BME280;52365;47.464;18.976;2022-09-21T03:17:25;100127.25;;;12.08;66.10
65666;BME280;52365;47.464;18.976;2022-09-21T03:18:06;100127.69;;;12.06;65.99
65666;BME280;52365;47.464;18.976;2022-09-21T03:18:44;100118.41;;;12.07;65.97
65666;BME280;52365;47.464;18.976;2022-09-21T03:19:20;100126.97;;;12.06;66.01
65666;BME280;52365;47.464;18.976;2022-09-21T03:19:56;100118.41;;;12.07;66.18
65666;BME280;52365;47.464;18.976;2022-09-21T03:20:32;100124.56;;;12.08;66.23
65666;BME280;52365;47.464;18.976;2022-09-21T03:21:09;100124.09;;;12.09;66.04
65666;BME280;52365;47.464;18.976;2022-09-21T03:21:46;100129.66;;;12.06;65.92
65666;BME280;52365;47.464;18.976;2022-09-21T03:22:22;100133.09;;;12.06;65.96
65666;BME280;52365;47.464;18.976;2022-09-21T03:22:59;100128.44;;;12.07;65.99
65666;BME280;52365;47.464;18.976;2022-09-21T03:23:35;100137.03;;;12.05;66.01
65666;BME280;52365;47.464;18.976;2022-09-21T03:24:11;100126.22;;;12.05;66.10
65666;BME280;52365;47.464;18.976;2022-09-21T03:24:47;100130.31;;;11.82;66.42
65666;BME280;52365;47.464;18.976;2022-09-21T03:25:24;100133.00;;;11.92;66.38
65666;BME280;52365;47.464;18.976;2022-09-21T03:26:00;100129.41;;;11.95;66.13
65666;BME280;52365;47.464;18.976;2022-09-21T03:26:37;100137.16;;;12.02;65.99
65666;BME280;52365;47.464;18.976;2022-09-21T03:27:19;100136.00;;;12.03;65.66
65666;BME280;52365;47.464;18.976;2022-09-21T03:27:56;100132.06;;;12.04;65.68
65666;BME280;52365;47.464;18.976;2022-09-21T03:28:33;100136.28;;;12.05;65.74
65666;BME280;52365;47.464;18.976;2022-09-21T03:29:09;100137.16;;;12.11;65.71
65666;BME280;52365;47.464;18.976;2022-09-21T03:29:46;100134.63;;;12.07;65.60
65666;BME280;52365;47.464;18.976;2022-09-21T03:30:24;100136.28;;;12.05;65.48
65666;BME280;52365;47.464;18.976;2022-09-21T03:31:00;100137.03;;;12.05;65.36
65666;BME280;52365;47.464;18.976;2022-09-21T03:31:36;100137.16;;;12.02;65.36
65666;BME280;52365;47.464;18.976;2022-09-21T03:32:12;100135.84;;;11.97;65.35
65666;BME280;52365;47.464;18.976;2022-09-21T03:32:50;100138.25;;;11.95;65.38
65666;BME280;52365;47.464;18.976;2022-09-21T03:33:26;100131.94;;;11.80;65.65
65666;BME280;52365;47.464;18.976;2022-09-21T03:34:02;100131.19;;;11.89;65.74
65666;BME280;52365;47.464;18.976;2022-09-21T03:34:39;100131.50;;;11.91;65.66
65666;BME280;52365;47.464;18.976;2022-09-21T03:35:16;100131.50;;;11.91;65.66
65666;BME280;52365;47.464;18.976;2022-09-21T03:35:52;100134.19;;;11.81;65.82
65666;BME280;52365;47.464;18.976;2022-09-21T03:36:28;100139.28;;;11.79;66.07
65666;BME280;52365;47.464;18.976;2022-09-21T03:37:06;100127.91;;;11.84;66.04
65666;BME280;52365;47.464;18.976;2022-09-21T03:37:43;100130.91;;;11.87;65.87
65666;BME280;52365;47.464;18.976;2022-09-21T03:38:19;100134.50;;;11.93;65.72
65666;BME280;52365;47.464;18.976;2022-09-21T03:38:56;100136.59;;;11.89;65.65
65666;BME280;52365;47.464;18.976;2022-09-21T03:39:32;100138.56;;;11.88;65.65
65666;BME280;52365;47.464;18.976;2022-09-21T03:40:08;100145.63;;;11.86;65.68
65666;BME280;52365;47.464;18.976;2022-09-21T03:40:47;100139.91;;;11.83;65.72
65666;BME280;52365;47.464;18.976;2022-09-21T03:41:24;100141.87;;;11.83;65.82
65666;BME280;52365;47.464;18.976;2022-09-21T03:42:00;100138.69;;;11.84;65.93
65666;BME280;52365;47.464;18.976;2022-09-21T03:42:39;100139.00;;;11.77;66.10
65666;BME280;52365;47.464;18.976;2022-09-21T03:43:16;100141.38;;;11.75;66.30
65666;BME280;52365;47.464;18.976;2022-09-21T03:43:52;100135.09;;;11.78;66.21
65666;BME280;52365;47.464;18.976;2022-09-21T03:44:28;100135.37;;;11.80;66.09
65666;BME280;52365;47.464;18.976;2022-09-21T03:45:05;100145.00;;;11.81;65.96
65666;BME280;52365;47.464;18.976;2022-09-21T03:45:41;100131.34;;;11.76;66.04